Time;durP1;ratioP1;P1;durP2;ratioP2;P2;SDS_P1;SDS_P2;PMS_P1;PMS_P2;Temp;Humidity;BMP_temperature;BMP_pressure;BME280_temperature;BME280_humidity;BME280_pressure;Samples;Min_cycle;Max_cycle;Signal;HPM_P1;HPM_P2
2023/12/13 00:01:14;;;;;;;10.38;1.58;;;28.90;99.90;;;;;;5063358;28;20188;-78
2023/12/13 00:03:47;;;;;;;6.00;1.40;;;29.00;99.90;;;;;;5071107;28;20195;-77
2023/12/13 00:06:18;;;;;;;5.50;1.30;;;29.10;99.90;;;;;;5070546;28;20235;-77
2023/12/13 00:08:51;;;;;;;5.45;1.50;;;29.30;99.90;;;;;;5064454;28;20200;-77
2023/12/13 00:11:21;;;;;;;9.55;1.55;;;29.40;99.90;;;;;;5068801;28;20192;-77
2023/12/13 00:13:53;;;;;;;7.72;1.55;;;29.30;99.90;;;;;;5069399;28;20279;-78
2023/12/13 00:16:24;;;;;;;5.65;1.50;;;29.00;99.90;;;;;;5057976;28;20224;-77
2023/12/13 00:18:55;;;;;;;6.20;1.45;;;28.80;99.90;;;;;;5090677;28;20195;-77
2023/12/13 00:21:26;;;;;;;5.25;1.52;;;28.50;99.90;;;;;;5079686;28;20246;-78
2023/12/13 00:23:59;;;;;;;9.73;1.65;;;28.40;99.90;;;;;;5067417;28;20207;-75
2023/12/13 00:26:29;;;;;;;11.52;1.73;;;28.30;99.90;;;;;;5065207;28;20251;-78
2023/12/13 00:29:00;;;;;;;6.32;1.58;;;28.30;99.90;;;;;;5051642;28;20200;-76
2023/12/13 00:31:31;;;;;;;11.18;1.90;;;28.30;99.90;;;;;;5059314;28;20686;-76
2023/12/13 00:34:02;;;;;;;7.50;1.70;;;28.40;99.90;;;;;;5065480;28;20196;-76
2023/12/13 00:36:32;;;;;;;8.23;1.77;;;28.30;99.90;;;;;;5067720;28;20199;-76
2023/12/13 00:39:05;;;;;;;6.93;1.70;;;28.40;99.90;;;;;;5054376;28;20203;-77
2023/12/13 00:41:36;;;;;;;8.38;1.95;;;28.40;99.90;;;;;;5054083;28;20204;-77
2023/12/13 00:44:07;;;;;;;9.20;1.70;;;28.40;99.90;;;;;;5072950;28;20210;-77
2023/12/13 00:46:39;;;;;;;7.22;1.60;;;28.40;99.90;;;;;;5073473;28;20227;-77
2023/12/13 00:49:10;;;;;;;12.00;2.28;;;28.50;99.90;;;;;;5073913;28;20202;-76
2023/12/13 00:51:41;;;;;;;9.35;2.00;;;28.60;99.90;;;;;;5072487;28;20192;-76
2023/12/13 00:54:13;;;;;;;6.47;1.60;;;28.80;99.90;;;;;;5074596;28;20192;-76
2023/12/13 00:56:44;;;;;;;7.80;1.40;;;28.80;99.90;;;;;;5074376;28;20199;-76
2023/12/13 00:59:15;;;;;;;9.80;1.95;;;28.70;99.90;;;;;;5075446;28;20204;-75
2023/12/13 01:01:49;;;;;;;6.75;1.50;;;28.50;99.90;;;;;;5075235;28;20202;-75
2023/12/13 01:04:20;;;;;;;7.72;1.92;;;28.40;99.90;;;;;;5077859;28;20199;-75
2023/12/13 01:06:51;;;;;;;8.10;1.60;;;28.30;99.90;;;;;;5078143;28;20310;-75
2023/12/13 01:09:23;;;;;;;8.02;1.60;;;28.40;99.90;;;;;;5073486;28;20663;-76
2023/12/13 01:11:56;;;;;;;7.85;1.60;;;28.20;99.90;;;;;;5072501;28;20207;-75
2023/12/13 01:14:27;;;;;;;5.82;1.33;;;28.10;99.90;;;;;;5073519;28;20196;-76
2023/12/13 01:16:59;;;;;;;7.15;1.75;;;28.00;99.90;;;;;;5073121;28;20237;-77
2023/12/13 01:19:30;;;;;;;4.40;1.55;;;27.90;99.90;;;;;;5073216;28;20211;-76
2023/12/13 01:22:02;;;;;;;8.15;1.83;;;27.70;99.90;;;;;;5073517;28;20203;-75
2023/12/13 01:24:34;;;;;;;4.15;1.30;;;27.70;99.90;;;;;;5056654;28;20194;-76
2023/12/13 01:27:05;;;;;;;9.18;1.80;;;27.80;99.90;;;;;;5055387;28;20235;-75
2023/12/13 01:29:36;;;;;;;8.52;1.48;;;28.00;99.90;;;;;;5053215;28;20207;-76
2023/12/13 01:32:07;;;;;;;10.05;1.90;;;28.30;99.90;;;;;;5067981;28;20212;-76
2023/12/13 01:34:37;;;;;;;6.97;1.58;;;28.30;99.90;;;;;;5071847;28;20203;-76
2023/12/13 01:37:08;;;;;;;7.35;1.55;;;28.30;99.90;;;;;;5070828;28;20211;-76
2023/12/13 01:39:43;;;;;;;6.38;1.50;;;28.50;99.90;;;;;;5087509;28;20208;-76
2023/12/13 01:42:13;;;;;;;6.20;1.58;;;28.70;99.90;;;;;;5072706;28;20199;-76
2023/12/13 01:44:44;;;;;;;6.22;1.60;;;28.60;99.90;;;;;;5073232;28;20192;-78
2023/12/13 01:47:16;;;;;;;8.60;1.85;;;28.60;99.90;;;;;;5069408;28;20219;-77
2023/12/13 01:49:48;;;;;;;7.60;1.50;;;28.60;99.90;;;;;;5070739;28;20200;-77
2023/12/13 01:52:19;;;;;;;4.30;1.25;;;28.60;99.90;;;;;;5058712;28;20203;-77
2023/12/13 01:54:53;;;;;;;9.98;1.73;;;28.60;99.90;;;;;;5067858;28;20271;-76
2023/12/13 01:57:25;;;;;;;6.53;1.73;;;28.50;99.90;;;;;;5070931;28;20212;-76
2023/12/13 01:59:56;;;;;;;8.18;2.00;;;28.50;99.90;;;;;;5072375;28;20271;-78
2023/12/13 02:02:27;;;;;;;8.40;1.45;;;28.50;99.90;;;;;;5072585;28;20204;-75
2023/12/13 02:04:58;;;;;;;6.60;1.70;;;28.60;99.90;;;;;;5071526;28;20227;-76
2023/12/13 02:07:29;;;;;;;9.10;1.77;;;28.70;99.90;;;;;;5072319;28;20212;-76
2023/12/13 02:10:01;;;;;;;8.95;1.73;;;28.80;99.90;;;;;;5054783;28;20197;-76
2023/12/13 02:12:32;;;;;;;12.73;1.92;;;28.90;99.90;;;;;;5056600;28;20217;-75
2023/12/13 02:15:03;;;;;;;6.82;1.70;;;29.00;99.90;;;;;;5070799;28;20275;-76
2023/12/13 02:17:34;;;;;;;10.75;1.73;;;29.00;99.90;;;;;;5061231;28;20237;-76
2023/12/13 02:20:05;;;;;;;10.57;1.73;;;29.20;99.90;;;;;;5072821;28;20295;-77
2023/12/13 02:22:37;;;;;;;4.22;1.58;;;29.20;99.90;;;;;;5066148;28;20312;-76
2023/12/13 02:25:17;;;;;;;6.88;1.70;;;29.40;99.90;;;;;;5071988;28;20566;-78
2023/12/13 02:27:48;;;;;;;4.95;1.50;;;29.40;99.90;;;;;;5065547;28;20663;-76
2023/12/13 02:30:19;;;;;;;7.35;1.65;;;29.50;99.90;;;;;;5065954;28;20275;-76
2023/12/13 02:32:49;;;;;;;10.40;2.10;;;29.70;99.90;;;;;;5076530;28;20227;-77
2023/12/13 02:35:20;;;;;;;11.10;2.03;;;29.80;99.90;;;;;;5076657;28;20270;-76
2023/12/13 02:37:54;;;;;;;8.45;2.03;;;29.80;99.90;;;;;;5087258;28;20195;-76
2023/12/13 02:40:25;;;;;;;8.40;1.70;;;29.70;99.90;;;;;;5082530;28;20203;-76
2023/12/13 02:42:56;;;;;;;11.23;2.13;;;29.50;99.90;;;;;;5087557;28;20902;-76
2023/12/13 02:45:26;;;;;;;9.15;1.80;;;29.30;99.90;;;;;;5087615;28;20283;-77
2023/12/13 02:47:59;;;;;;;7.45;2.05;;;29.20;99.90;;;;;;5080797;28;20192;-79
2023/12/13 02:50:30;;;;;;;10.15;2.97;;;29.10;99.90;;;;;;5072297;28;20231;-76
2023/12/13 02:53:03;;;;;;;14.00;2.40;;;29.10;99.90;;;;;;5072171;28;20202;-76
2023/12/13 02:55:35;;;;;;;8.73;3.15;;;29.00;99.90;;;;;;5072857;28;20250;-77
2023/12/13 02:58:06;;;;;;;8.20;2.50;;;29.00;99.90;;;;;;5068080;28;20219;-76
2023/12/13 03:00:37;;;;;;;8.98;2.05;;;29.10;99.90;;;;;;5059857;28;20215;-76
2023/12/13 03:03:08;;;;;;;6.75;1.90;;;28.90;99.90;;;;;;5071392;28;20199;-76
2023/12/13 03:05:39;;;;;;;13.00;2.38;;;28.90;99.90;;;;;;5069769;28;20223;-76
2023/12/13 03:08:11;;;;;;;8.20;1.85;;;29.00;99.90;;;;;;5067390;28;20198;-76
2023/12/13 03:10:42;;;;;;;8.18;2.03;;;29.10;99.90;;;;;;5062386;28;20187;-77
2023/12/13 03:13:13;;;;;;;8.60;2.05;;;29.20;99.90;;;;;;5070669;28;20692;-77
2023/12/13 03:15:44;;;;;;;8.25;2.05;;;29.10;99.90;;;;;;5069169;28;20228;-77
2023/12/13 03:18:15;;;;;;;12.93;2.30;;;29.40;99.90;;;;;;5057910;28;20204;-77
2023/12/13 03:20:45;;;;;;;9.10;2.50;;;29.60;99.90;;;;;;5067887;28;20218;-77
2023/12/13 03:23:18;;;;;;;9.00;2.17;;;29.50;99.90;;;;;;5071288;28;20235;-76
2023/12/13 03:25:49;;;;;;;11.70;2.15;;;29.40;99.90;;;;;;5085509;28;20267;-77
2023/12/13 03:28:20;;;;;;;12.93;2.30;;;29.50;99.90;;;;;;5075213;28;20590;-77
2023/12/13 03:30:51;;;;;;;11.07;2.00;;;29.50;99.90;;;;;;5050765;28;20246;-76
2023/12/13 03:33:21;;;;;;;12.75;2.72;;;29.40;99.90;;;;;;5055188;28;20599;-76
2023/12/13 03:35:52;;;;;;;8.68;2.58;;;29.50;99.90;;;;;;5070466;28;20204;-77
2023/12/13 03:38:25;;;;;;;9.80;2.22;;;29.50;99.90;;;;;;5071055;28;20651;-77
2023/12/13 03:40:56;;;;;;;7.95;2.30;;;29.40;99.90;;;;;;5070646;28;20196;-76
2023/12/13 03:43:27;;;;;;;7.68;2.20;;;29.30;99.90;;;;;;5070651;28;20202;-77
2023/12/13 03:45:57;;;;;;;7.85;2.30;;;29.30;99.90;;;;;;5070263;28;20226;-78
2023/12/13 03:48:28;;;;;;;7.30;2.72;;;29.40;99.90;;;;;;5070148;28;20211;-77
2023/12/13 03:50:57;;;;;;;8.38;2.50;;;29.50;99.90;;;;;;5070756;28;20199;-78
2023/12/13 03:53:30;;;;;;;10.18;2.70;;;29.60;99.90;;;;;;5070261;28;20200;-77
2023/12/13 03:56:01;;;;;;;8.27;2.42;;;29.80;99.90;;;;;;5090885;28;20577;-77
2023/12/13 03:58:32;;;;;;;5.57;2.20;;;30.10;99.90;;;;;;5073108;28;20206;-77
2023/12/13 04:01:04;;;;;;;10.90;2.75;;;30.20;99.90;;;;;;5059940;28;20203;-77
2023/12/13 04:03:36;;;;;;;8.93;2.55;;;30.20;99.90;;;;;;5068544;28;20220;-77
2023/12/13 04:06:07;;;;;;;6.53;2.60;;;30.20;99.90;;;;;;5054892;28;20224;-75
2023/12/13 04:08:40;;;;;;;9.88;2.92;;;30.30;99.90;;;;;;5070339;28;20197;-75
2023/12/13 04:11:11;;;;;;;10.30;2.70;;;30.30;99.90;;;;;;5069968;28;20581;-76
2023/12/13 04:13:44;;;;;;;7.85;2.42;;;30.40;99.90;;;;;;5069789;28;20695;-76
2023/12/13 04:16:15;;;;;;;8.13;2.67;;;30.40;99.90;;;;;;5070460;28;20231;-76
2023/12/13 04:18:45;;;;;;;8.02;2.50;;;30.40;99.90;;;;;;5071001;28;20279;-76
2023/12/13 04:21:16;;;;;;;6.10;2.30;;;30.50;99.90;;;;;;5070969;28;20206;-76
2023/12/13 04:23:49;;;;;;;7.22;2.80;;;30.70;99.90;;;;;;5070358;28;20286;-77
2023/12/13 04:26:20;;;;;;;7.22;2.65;;;30.70;99.90;;;;;;5070262;28;20226;-77
2023/12/13 04:28:51;;;;;;;8.45;2.85;;;30.80;99.90;;;;;;5074431;28;20230;-75
2023/12/13 04:31:21;;;;;;;8.65;2.58;;;31.00;99.90;;;;;;5070592;28;20195;-75
2023/12/13 04:33:52;;;;;;;11.02;2.75;;;30.90;99.90;;;;;;5070495;28;20180;-74
2023/12/13 04:36:23;;;;;;;7.85;2.95;;;30.70;99.90;;;;;;5070680;28;20218;-76
2023/12/13 04:38:56;;;;;;;10.80;3.22;;;30.70;99.90;;;;;;5070107;28;20199;-76
2023/12/13 04:41:27;;;;;;;10.73;2.97;;;30.80;99.90;;;;;;5069997;28;20207;-77
2023/12/13 04:43:57;;;;;;;8.07;2.90;;;30.90;99.90;;;;;;5067009;28;20537;-76
2023/12/13 04:46:28;;;;;;;9.48;2.72;;;31.00;99.90;;;;;;5066591;28;20302;-76
2023/12/13 04:48:59;;;;;;;9.73;2.88;;;31.30;99.90;;;;;;5059098;28;20239;-76
2023/12/13 04:51:31;;;;;;;9.10;2.70;;;31.30;99.90;;;;;;5062766;28;20196;-77
2023/12/13 04:54:04;;;;;;;9.40;2.78;;;31.40;99.90;;;;;;5070556;28;20198;-76
2023/12/13 04:56:35;;;;;;;9.48;2.58;;;31.30;99.90;;;;;;5070233;28;20706;-76
2023/12/13 04:59:05;;;;;;;10.55;2.90;;;31.30;99.90;;;;;;5069876;28;20192;-77
2023/12/13 05:01:37;;;;;;;8.57;2.80;;;31.40;99.90;;;;;;5061051;28;20210;-76
2023/12/13 05:04:08;;;;;;;7.60;2.63;;;31.40;99.90;;;;;;5063538;28;20206;-77
2023/12/13 05:06:39;;;;;;;5.28;2.42;;;31.50;99.90;;;;;;5066188;28;20216;-76
2023/12/13 05:09:12;;;;;;;7.85;2.80;;;31.50;99.90;;;;;;5063607;28;20218;-78
2023/12/13 05:11:42;;;;;;;7.70;2.50;;;31.50;99.90;;;;;;5070456;28;20607;-75
2023/12/13 05:14:13;;;;;;;9.05;2.88;;;31.80;99.90;;;;;;5069218;28;20200;-77
2023/12/13 05:16:44;;;;;;;8.23;2.50;;;31.90;99.90;;;;;;5070311;28;20224;-76
2023/12/13 05:19:15;;;;;;;8.23;2.28;;;32.00;99.90;;;;;;5072498;28;20199;-77
2023/12/13 05:21:46;;;;;;;6.72;2.03;;;32.00;99.90;;;;;;5070651;28;20211;-75
2023/12/13 05:24:19;;;;;;;10.15;2.45;;;32.10;99.90;;;;;;5070783;28;20650;-76
2023/12/13 05:26:52;;;;;;;7.90;1.98;;;32.10;99.90;;;;;;5073183;28;20216;-75
2023/12/13 05:29:23;;;;;;;8.15;2.10;;;32.10;99.90;;;;;;5070188;28;20200;-76
2023/12/13 05:31:54;;;;;;;7.78;2.05;;;32.10;99.90;;;;;;5073101;28;20203;-76
2023/12/13 05:34:24;;;;;;;6.45;2.00;;;31.90;99.90;;;;;;5072848;28;20192;-76
2023/12/13 05:36:55;;;;;;;8.82;2.13;;;31.80;99.90;;;;;;5067159;28;20199;-76
2023/12/13 05:39:28;;;;;;;6.55;2.08;;;31.90;99.90;;;;;;5053465;28;20200;-76
2023/12/13 05:41:59;;;;;;;9.82;2.08;;;32.10;99.90;;;;;;5060332;28;20202;-77
2023/12/13 05:44:30;;;;;;;6.47;1.80;;;32.10;99.90;;;;;;5072573;28;20196;-77
2023/12/13 05:47:00;;;;;;;6.45;1.77;;;32.00;99.90;;;;;;5067425;28;20747;-75
2023/12/13 05:49:31;;;;;;;9.10;1.90;;;31.70;99.90;;;;;;5070483;28;20730;-76
2023/12/13 05:52:02;;;;;;;8.40;1.95;;;31.30;99.90;;;;;;5071098;28;20948;-76
2023/12/13 05:54:35;;;;;;;6.97;1.92;;;31.10;99.90;;;;;;5072335;28;20192;-76
2023/12/13 05:57:07;;;;;;;10.65;2.22;;;30.80;99.90;;;;;;5073322;28;20228;-77
2023/12/13 05:59:37;;;;;;;9.25;2.20;;;30.20;99.90;;;;;;5075504;28;20622;-77
2023/12/13 06:02:08;;;;;;;9.73;2.20;;;30.00;99.90;;;;;;5073937;28;20349;-76
2023/12/13 06:04:42;;;;;;;11.45;2.28;;;30.40;99.90;;;;;;5053018;28;20605;-76
2023/12/13 06:07:13;;;;;;;7.75;1.85;;;30.50;99.90;;;;;;5052753;28;20223;-76
2023/12/13 06:09:47;;;;;;;8.20;1.77;;;30.80;99.90;;;;;;5068784;28;20237;-75
2023/12/13 06:12:17;;;;;;;7.70;1.98;;;30.50;99.90;;;;;;5072144;28;20283;-76
2023/12/13 06:14:48;;;;;;;5.63;1.42;;;30.20;99.90;;;;;;5072294;28;20208;-76
2023/12/13 06:17:19;;;;;;;8.82;2.08;;;29.80;99.90;;;;;;5070606;28;20258;-76
2023/12/13 06:19:50;;;;;;;6.07;1.83;;;29.70;99.90;;;;;;5052209;28;20691;-76
2023/12/13 06:22:20;;;;;;;7.15;1.90;;;29.60;99.90;;;;;;5051934;28;20698;-77
2023/12/13 06:24:53;;;;;;;5.75;1.75;;;29.70;99.90;;;;;;5052188;28;20279;-76
2023/12/13 06:27:24;;;;;;;8.75;1.98;;;30.00;99.90;;;;;;5062038;28;20216;-75
2023/12/13 06:29:55;;;;;;;10.20;2.15;;;29.80;99.90;;;;;;5071901;28;20613;-76
2023/12/13 06:32:26;;;;;;;8.93;2.10;;;29.60;99.90;;;;;;5071774;28;20641;-76
2023/12/13 06:34:56;;;;;;;8.95;2.03;;;29.60;99.90;;;;;;5071799;28;20202;-76
2023/12/13 06:37:27;;;;;;;8.35;2.05;;;29.60;99.90;;;;;;5070787;28;20532;-76
2023/12/13 06:40:00;;;;;;;8.85;1.92;;;29.30;99.90;;;;;;5071712;28;20216;-76
2023/12/13 06:42:31;;;;;;;9.80;2.38;;;29.20;99.90;;;;;;5071075;28;20265;-76
2023/12/13 06:45:02;;;;;;;10.07;2.40;;;30.30;99.90;;;;;;5081799;28;20308;-75
2023/12/13 06:47:33;;;;;;;7.95;2.05;;;30.60;99.90;;;;;;5084081;28;20225;-75
2023/12/13 06:50:05;;;;;;;12.55;2.45;;;30.80;99.90;;;;;;5058415;28;20262;-76
2023/12/13 06:52:35;;;;;;;12.85;2.60;;;31.20;99.90;;;;;;5067298;28;20192;-75
2023/12/13 06:55:09;;;;;;;11.10;2.60;;;31.90;99.90;;;;;;5061095;28;20192;-77
2023/12/13 06:57:40;;;;;;;10.30;2.15;;;32.40;99.90;;;;;;5061302;28;20307;-74
2023/12/13 07:00:11;;;;;;;7.03;2.00;;;32.80;99.90;;;;;;5071165;28;20191;-76
2023/12/13 07:02:42;;;;;;;9.35;2.10;;;33.10;99.90;;;;;;5077048;28;20666;-76
2023/12/13 07:05:13;;;;;;;8.40;2.42;;;33.60;99.90;;;;;;5071592;28;20288;-76
2023/12/13 07:07:46;;;;;;;8.75;2.20;;;33.60;99.90;;;;;;5071585;28;20238;-76
2023/12/13 07:10:21;;;;;;;8.30;2.10;;;33.90;99.90;;;;;;5071126;28;20195;-75
2023/12/13 07:12:52;;;;;;;10.13;2.50;;;34.00;99.90;;;;;;5069962;28;20207;-77
2023/12/13 07:15:23;;;;;;;12.70;2.30;;;34.10;99.90;;;;;;5070636;28;20202;-77
2023/12/13 07:17:54;;;;;;;8.02;2.13;;;34.40;99.90;;;;;;5071629;28;20195;-77
2023/12/13 07:20:25;;;;;;;9.52;2.28;;;34.40;99.90;;;;;;5091342;28;20339;-77
2023/12/13 07:22:56;;;;;;;9.45;2.10;;;34.30;99.90;;;;;;5090957;28;20195;-76
2023/12/13 07:25:29;;;;;;;9.38;2.20;;;34.50;99.90;;;;;;5065195;28;20197;-76
2023/12/13 07:28:00;;;;;;;11.93;2.45;;;34.80;99.90;;;;;;5056833;28;20227;-76
2023/12/13 07:30:31;;;;;;;6.88;2.00;;;34.60;99.90;;;;;;5051543;28;20211;-76
2023/12/13 07:33:01;;;;;;;9.27;2.38;;;34.40;99.90;;;;;;5060277;28;20300;-75
2023/12/13 07:35:33;;;;;;;8.98;2.38;;;34.40;99.90;;;;;;5081469;28;20199;-76
2023/12/13 07:38:04;;;;;;;11.73;2.63;;;34.20;99.90;;;;;;5064882;28;20201;-76
2023/12/13 07:40:37;;;;;;;10.65;2.40;;;33.80;99.90;;;;;;5077932;28;20207;-76
2023/12/13 07:43:07;;;;;;;7.38;2.03;;;33.80;99.90;;;;;;5052419;28;20287;-75
2023/12/13 07:45:38;;;;;;;14.68;2.42;;;33.20;99.90;;;;;;5050215;28;20193;-76
2023/12/13 07:48:09;;;;;;;9.05;2.60;;;32.60;99.90;;;;;;5050512;28;20264;-76
2023/12/13 07:50:40;;;;;;;6.88;2.10;;;32.40;99.90;;;;;;5054866;28;20192;-77
2023/12/13 07:53:12;;;;;;;9.40;2.28;;;32.20;99.90;;;;;;5056408;28;20200;-75
2023/12/13 07:55:45;;;;;;;8.27;2.13;;;31.80;99.90;;;;;;5066458;28;20211;-75
2023/12/13 07:58:17;;;;;;;10.45;2.22;;;31.50;99.90;;;;;;5067760;28;20191;-76
2023/12/13 08:00:48;;;;;;;14.50;2.70;;;30.90;99.90;;;;;;5064297;28;20278;-75
2023/12/13 08:03:19;;;;;;;12.07;2.35;;;30.50;99.90;;;;;;5070255;28;20677;-75
2023/12/13 08:05:50;;;;;;;9.35;2.53;;;30.00;99.90;;;;;;5070545;28;20234;-75
2023/12/13 08:08:21;;;;;;;9.20;2.72;;;29.80;99.90;;;;;;5070112;28;20226;-75
2023/12/13 08:10:53;;;;;;;9.80;2.50;;;29.40;99.90;;;;;;5079232;28;20204;-75
2023/12/13 08:13:24;;;;;;;9.38;2.20;;;29.30;99.90;;;;;;5070122;28;20206;-76
2023/12/13 08:15:55;;;;;;;11.48;2.50;;;28.90;99.90;;;;;;5070062;28;20227;-76
2023/12/13 08:18:26;;;;;;;13.68;2.95;;;28.80;99.90;;;;;;5069058;28;20196;-75
2023/12/13 08:20:57;;;;;;;13.32;2.90;;;28.60;99.90;;;;;;5070244;28;20196;-75
2023/12/13 08:23:28;;;;;;;10.75;2.67;;;28.40;99.90;;;;;;5068538;28;20706;-76
2023/12/13 08:26:00;;;;;;;11.05;2.60;;;28.10;99.90;;;;;;5057532;28;20200;-76
2023/12/13 08:28:31;;;;;;;12.27;2.75;;;28.00;99.90;;;;;;5056578;28;20476;-76
2023/12/13 08:31:03;;;;;;;10.95;2.47;;;27.90;99.90;;;;;;5050161;28;20215;-76
2023/12/13 08:33:34;;;;;;;12.60;2.78;;;27.70;99.90;;;;;;5050211;28;20623;-76
2023/12/13 08:36:10;;;;;;;11.00;2.47;;;27.50;99.90;;;;;;5064803;28;20219;-75
2023/12/13 08:38:42;;;;;;;14.52;2.63;;;27.40;99.90;;;;;;5066273;28;20283;-77
2023/12/13 08:41:16;;;;;;;12.25;2.85;;;27.40;99.90;;;;;;5070361;28;20617;-76
2023/12/13 08:43:47;;;;;;;12.20;2.70;;;27.40;99.90;;;;;;5073886;28;20199;-77
2023/12/13 08:46:18;;;;;;;10.70;2.70;;;27.20;99.90;;;;;;5089859;28;20201;-77
2023/12/13 08:48:48;;;;;;;12.32;2.30;;;27.10;99.90;;;;;;5090210;28;20320;-75
2023/12/13 08:51:19;;;;;;;9.52;2.47;;;27.20;99.90;;;;;;5090900;28;20246;-76
2023/12/13 08:53:54;;;;;;;12.88;3.00;;;27.00;99.90;;;;;;5064698;28;20205;-75
2023/12/13 08:56:26;;;;;;;14.38;2.70;;;27.10;99.90;;;;;;5063436;28;20246;-76
2023/12/13 08:58:58;;;;;;;13.52;2.40;;;27.00;99.90;;;;;;5052874;28;20203;-76
2023/12/13 09:01:28;;;;;;;10.90;2.83;;;27.00;99.90;;;;;;5055351;28;20618;-77
2023/12/13 09:03:59;;;;;;;11.43;2.80;;;27.10;99.90;;;;;;5056918;28;20192;-77
2023/12/13 09:06:30;;;;;;;15.95;3.53;;;27.00;99.90;;;;;;5054691;28;20201;-76
2023/12/13 09:09:03;;;;;;;13.38;2.92;;;27.00;99.90;;;;;;5059488;28;20258;-77
2023/12/13 09:11:37;;;;;;;8.63;2.22;;;26.90;99.90;;;;;;5073719;28;20232;-77
2023/12/13 09:14:07;;;;;;;10.50;2.95;;;27.00;99.90;;;;;;5072167;28;20211;-76
2023/12/13 09:16:38;;;;;;;12.05;3.15;;;27.00;99.90;;;;;;5071970;28;20247;-76
2023/12/13 09:19:10;;;;;;;11.50;2.20;;;26.90;99.90;;;;;;5073878;28;20204;-75
2023/12/13 09:21:40;;;;;;;10.05;2.45;;;26.90;99.90;;;;;;5073662;28;20670;-74
2023/12/13 09:24:12;;;;;;;11.15;2.67;;;26.90;99.90;;;;;;5073769;28;20196;-76
2023/12/13 09:26:44;;;;;;;7.20;2.53;;;26.80;99.90;;;;;;5066032;28;20200;-76
2023/12/13 09:29:15;;;;;;;10.27;2.67;;;26.90;99.90;;;;;;5053850;28;20260;-76
2023/12/13 09:31:47;;;;;;;9.00;2.30;;;26.90;99.90;;;;;;5053614;28;20193;-76
2023/12/13 09:34:18;;;;;;;11.57;2.40;;;26.90;99.90;;;;;;5059152;28;20246;-76
2023/12/13 09:36:49;;;;;;;14.43;2.80;;;26.90;99.90;;;;;;5079326;28;20712;-76
2023/12/13 09:39:19;;;;;;;9.68;2.65;;;26.90;99.90;;;;;;5063905;28;20709;-76
2023/12/13 09:42:02;;;;;;;9.52;2.72;;;26.90;99.90;;;;;;5070630;28;20215;-76
2023/12/13 09:44:38;;;;;;;9.30;2.35;;;26.90;99.90;;;;;;5072031;28;20197;-76
2023/12/13 09:47:10;;;;;;;9.90;2.50;;;26.90;99.90;;;;;;5088157;28;20210;-76
2023/12/13 09:49:41;;;;;;;13.57;2.95;;;26.90;99.90;;;;;;5087399;28;20230;-76
2023/12/13 09:52:13;;;;;;;8.70;2.58;;;26.90;99.90;;;;;;5075730;28;20275;-77
2023/12/13 09:54:46;;;;;;;11.10;2.78;;;26.90;99.90;;;;;;5075793;28;20678;-77
2023/12/13 09:57:18;;;;;;;11.95;2.75;;;26.80;99.90;;;;;;5073257;28;20221;-76
2023/12/13 09:59:49;;;;;;;12.82;2.80;;;26.90;99.90;;;;;;5074590;28;20206;-76
2023/12/13 10:02:20;;;;;;;10.50;2.50;;;26.80;99.90;;;;;;5069545;28;20284;-76
2023/12/13 10:04:54;;;;;;;13.55;2.97;;;26.80;99.90;;;;;;5073723;28;20207;-76
2023/12/13 10:07:26;;;;;;;13.68;2.80;;;26.80;99.90;;;;;;5063785;28;20279;-76
2023/12/13 10:09:57;;;;;;;11.35;2.72;;;26.70;99.90;;;;;;5088173;28;20234;-76
2023/12/13 10:12:32;;;;;;;11.55;2.75;;;26.70;99.90;;;;;;5093866;28;20253;-77
2023/12/13 10:15:11;;;;;;;11.40;2.58;;;26.70;99.90;;;;;;5093390;28;20195;-76
2023/12/13 10:17:42;;;;;;;11.65;2.97;;;26.70;99.90;;;;;;5074148;28;20231;-76
2023/12/13 10:20:13;;;;;;;11.38;2.80;;;26.70;99.90;;;;;;5073314;28;20202;-75
2023/12/13 10:22:45;;;;;;;14.65;2.65;;;26.70;99.90;;;;;;5071849;28;20204;-75
2023/12/13 10:25:16;;;;;;;9.73;2.63;;;26.70;99.90;;;;;;5065433;28;20206;-75
2023/12/13 10:27:48;;;;;;;12.18;2.83;;;26.70;99.90;;;;;;5072746;28;20200;-77
2023/12/13 10:30:20;;;;;;;14.18;2.90;;;26.70;99.90;;;;;;5070837;28;20275;-76
2023/12/13 10:32:51;;;;;;;12.70;2.78;;;26.70;99.90;;;;;;5069787;28;20192;-77
2023/12/13 10:35:22;;;;;;;10.95;2.40;;;26.70;99.90;;;;;;5072031;28;20250;-76
2023/12/13 10:37:57;;;;;;;9.32;2.65;;;26.70;99.90;;;;;;5071796;28;20275;-76
2023/12/13 10:40:27;;;;;;;11.98;3.15;;;26.70;99.90;;;;;;5072075;28;20270;-76
2023/12/13 10:43:01;;;;;;;12.93;3.03;;;26.70;99.90;;;;;;5063513;28;20206;-76
2023/12/13 10:45:33;;;;;;;13.85;3.28;;;26.60;99.90;;;;;;5069967;28;20192;-76
2023/12/13 10:48:07;;;;;;;13.38;2.65;;;26.70;99.90;;;;;;5060230;28;20218;-76
2023/12/13 10:50:38;;;;;;;10.60;2.55;;;26.70;99.90;;;;;;5070934;28;20256;-76
2023/12/13 10:53:11;;;;;;;14.98;2.92;;;26.80;99.90;;;;;;5071267;28;20239;-76
2023/12/13 10:55:42;;;;;;;11.90;3.05;;;26.80;99.90;;;;;;5069735;28;20637;-76
2023/12/13 10:58:15;;;;;;;13.13;2.85;;;26.80;99.90;;;;;;5069474;28;20204;-76
2023/12/13 11:00:47;;;;;;;11.43;3.38;;;26.80;99.90;;;;;;5064632;28;20200;-76
2023/12/13 11:03:23;;;;;;;7.63;2.40;;;26.70;99.90;;;;;;5070190;28;20367;-76
2023/12/13 11:05:54;;;;;;;9.25;2.63;;;26.80;99.90;;;;;;5063376;28;20200;-77
2023/12/13 11:08:25;;;;;;;12.93;3.28;;;26.70;99.90;;;;;;5071078;28;20224;-76
2023/12/13 11:11:06;;;;;;;13.93;3.33;;;26.80;99.90;;;;;;5071473;28;20582;-75
2023/12/13 11:13:47;;;;;;;11.05;3.10;;;26.80;99.90;;;;;;5071510;28;20205;-75
2023/12/13 11:16:20;;;;;;;17.30;3.47;;;26.70;99.90;;;;;;5075307;28;20231;-76
2023/12/13 11:18:51;;;;;;;14.38;3.78;;;26.70;99.90;;;;;;5080677;28;20663;-76
2023/12/13 11:21:30;;;;;;;11.65;3.08;;;26.70;99.90;;;;;;5068190;28;20210;-76
2023/12/13 11:24:10;;;;;;;12.82;3.30;;;26.60;99.90;;;;;;5058834;28;20279;-75
2023/12/13 11:26:45;;;;;;;13.15;2.65;;;26.60;99.90;;;;;;5066079;28;20195;-76
2023/12/13 11:29:23;;;;;;;11.68;2.53;;;26.60;99.90;;;;;;5069196;28;20215;-76
2023/12/13 11:31:58;;;;;;;12.55;3.03;;;26.60;99.90;;;;;;5058475;28;20198;-76
2023/12/13 11:34:39;;;;;;;10.50;2.47;;;26.70;99.90;;;;;;5078746;28;20192;-75
2023/12/13 11:37:11;;;;;;;9.15;2.67;;;26.70;99.90;;;;;;5072688;28;20219;-76
2023/12/13 11:39:42;;;;;;;10.25;2.30;;;26.70;99.90;;;;;;5055595;28;20199;-76
2023/12/13 11:42:15;;;;;;;8.25;2.38;;;26.70;99.90;;;;;;5051294;28;20667;-77
2023/12/13 11:44:47;;;;;;;9.55;2.60;;;26.80;99.90;;;;;;5062376;28;20231;-76
2023/12/13 11:47:18;;;;;;;8.15;2.70;;;26.90;99.90;;;;;;5062287;28;20199;-76
2023/12/13 11:49:49;;;;;;;9.45;2.60;;;27.00;99.90;;;;;;5059840;28;20275;-76
2023/12/13 11:52:23;;;;;;;9.02;2.63;;;27.00;99.90;;;;;;5066457;28;20196;-76
2023/12/13 11:54:54;;;;;;;12.30;3.20;;;27.00;99.90;;;;;;5070549;28;20257;-76
2023/12/13 11:57:25;;;;;;;11.38;3.42;;;26.90;99.90;;;;;;5061433;28;20212;-77
2023/12/13 11:59:57;;;;;;;10.23;2.72;;;26.70;99.90;;;;;;5070227;28;20227;-76
2023/12/13 12:02:28;;;;;;;11.68;3.17;;;26.50;99.90;;;;;;5070115;28;20215;-75
2023/12/13 12:05:02;;;;;;;13.50;3.05;;;26.20;99.90;;;;;;5070006;28;20192;-74
2023/12/13 12:07:33;;;;;;;10.43;3.10;;;26.10;99.90;;;;;;5066344;28;20245;-75
2023/12/13 12:10:05;;;;;;;12.43;3.38;;;26.00;99.90;;;;;;5069806;28;20230;-75
2023/12/13 12:12:38;;;;;;;10.32;3.33;;;25.70;99.90;;;;;;5070154;28;20214;-75
2023/12/13 12:15:15;;;;;;;11.55;3.22;;;25.60;99.90;;;;;;5067930;28;20196;-74
2023/12/13 12:17:46;;;;;;;14.35;3.40;;;25.60;99.90;;;;;;5050289;28;20206;-74
2023/12/13 12:20:17;;;;;;;8.23;2.70;;;25.60;99.90;;;;;;5050174;28;20230;-75
2023/12/13 12:22:50;;;;;;;7.47;2.63;;;25.60;99.90;;;;;;5049603;28;20605;-75
2023/12/13 12:25:24;;;;;;;16.00;3.88;;;25.50;99.90;;;;;;5062502;28;20200;-75
2023/12/13 12:27:54;;;;;;;11.65;3.17;;;25.50;99.90;;;;;;5058693;28;20210;-74
2023/12/13 12:30:27;;;;;;;10.57;2.92;;;25.50;99.90;;;;;;5068777;28;20227;-74
2023/12/13 12:32:58;;;;;;;10.45;3.40;;;25.40;99.90;;;;;;5070950;28;20192;-75
2023/12/13 12:35:29;;;;;;;8.10;2.90;;;25.50;99.90;;;;;;5073273;28;20192;-74
2023/12/13 12:38:00;;;;;;;8.75;3.00;;;25.40;99.90;;;;;;5073506;28;20195;-75
2023/12/13 12:40:31;;;;;;;9.55;3.08;;;25.50;99.90;;;;;;5059041;28;20192;-75
2023/12/13 12:43:02;;;;;;;8.27;3.15;;;25.50;99.90;;;;;;5074317;28;20196;-75
2023/12/13 12:45:35;;;;;;;8.27;3.20;;;25.50;99.90;;;;;;5066032;28;20206;-76
2023/12/13 12:48:07;;;;;;;9.18;2.85;;;25.50;99.90;;;;;;5073980;28;20206;-75
2023/12/13 12:50:37;;;;;;;8.88;3.05;;;25.50;99.90;;;;;;5065702;28;20220;-77
2023/12/13 12:53:08;;;;;;;7.55;2.80;;;25.50;99.90;;;;;;5076279;28;20206;-76
2023/12/13 12:55:39;;;;;;;7.25;3.05;;;25.50;99.90;;;;;;5072886;28;20216;-75
2023/12/13 12:58:10;;;;;;;10.02;3.13;;;25.50;99.90;;;;;;5057499;28;20314;-75
2023/12/13 13:00:43;;;;;;;12.43;3.20;;;25.50;99.90;;;;;;5073855;28;20231;-76
2023/12/13 13:03:14;;;;;;;6.38;2.97;;;25.40;99.90;;;;;;5073004;28;20222;-75
2023/12/13 13:05:45;;;;;;;7.30;3.17;;;25.30;99.90;;;;;;5064749;28;20199;-75